Time;durP1;ratioP1;P1;durP2;ratioP2;P2;SDS_P1;SDS_P2;PMS_P1;PMS_P2;Temp;Humidity;BMP_temperature;BMP_pressure;BME280_temperature;BME280_humidity;BME280_pressure;Samples;Min_cycle;Max_cycle;Signal;HPM_P1;HPM_P2
2023/02/15 00:01:33;;;;;;;3.03;1.52;;;;;;;5.81;43.29;93739.81;6206907;23;20005;-79
2023/02/15 00:03:59;;;;;;;3.20;1.50;;;;;;;5.78;42.98;93732.47;6233918;23;20380;-79
2023/02/15 00:06:25;;;;;;;3.97;1.55;;;;;;;5.78;42.57;93736.88;6207255;23;20058;-80
2023/02/15 00:08:50;;;;;;;2.90;1.40;;;;;;;5.73;42.51;93724.56;6233665;23;20013;-79
2023/02/15 00:12:03;;;;;;;2.92;1.50;;;;;;;5.76;42.52;93733.69;6207008;23;20005;-79
2023/02/15 00:14:12;;;;;;;3.70;1.70;;;;;;;5.77;42.70;93730.09;6191490;23;20016;-79
2023/02/15 00:16:40;;;;;;;3.60;1.88;;;;;;;5.74;42.84;93722.75;6233347;23;20076;-79
2023/02/15 00:19:06;;;;;;;5.32;1.75;;;;;;;5.75;42.79;93732.13;6207265;23;20039;-79
2023/02/15 00:21:33;;;;;;;4.25;1.85;;;;;;;5.72;42.89;93730.78;6207580;23;20016;-80
2023/02/15 00:24:00;;;;;;;3.10;1.70;;;;;;;5.70;43.17;93730.22;6207539;23;20004;-79
2023/02/15 00:26:27;;;;;;;3.65;1.50;;;;;;;5.69;43.03;93727.81;6206882;23;20012;-79
2023/02/15 00:28:53;;;;;;;6.03;1.70;;;;;;;5.62;43.00;93720.16;6206220;23;20314;-79
2023/02/15 00:31:19;;;;;;;3.63;1.50;;;;;;;5.64;42.74;93731.88;6233298;23;20012;-80
2023/02/15 00:33:45;;;;;;;2.38;1.45;;;;;;;5.62;42.84;93733.91;6182728;23;20001;-80
2023/02/15 00:36:11;;;;;;;4.05;1.80;;;;;;;5.61;42.38;93727.16;6233432;23;20013;-80
2023/02/15 00:38:37;;;;;;;3.70;1.90;;;;;;;5.60;42.16;93725.56;6206829;23;20004;-79
2023/02/15 00:41:05;;;;;;;2.63;1.50;;;;;;;5.63;42.11;93734.72;6231944;23;20024;-79
2023/02/15 00:43:31;;;;;;;3.33;1.70;;;;;;;5.63;41.88;93735.50;6206715;23;20048;-80
2023/02/15 00:45:57;;;;;;;3.25;1.50;;;;;;;5.53;41.74;93718.91;6232977;23;20039;-79
2023/02/15 00:48:23;;;;;;;3.30;1.58;;;;;;;5.58;41.56;93727.59;6232921;23;20001;-77
2023/02/15 00:50:51;;;;;;;3.83;1.60;;;;;;;5.61;41.29;93737.53;6232874;23;20038;-79
2023/02/15 00:53:17;;;;;;;4.53;1.50;;;;;;;5.62;40.99;93739.09;6206146;23;20020;-80
2023/02/15 00:55:43;;;;;;;3.10;1.50;;;;;;;5.62;40.86;93739.09;6217578;23;20425;-79
2023/02/15 00:58:10;;;;;;;4.53;1.70;;;;;;;5.62;40.96;93733.91;6181683;23;20016;-80
2023/02/15 01:00:36;;;;;;;3.60;1.52;;;;;;;5.62;41.18;93730.53;6231916;23;20019;-78
2023/02/15 01:03:02;;;;;;;3.15;1.50;;;;;;;5.61;40.96;93734.94;6231858;23;20051;-79
2023/02/15 01:05:29;;;;;;;3.58;1.80;;;;;;;5.61;40.68;93727.16;6233266;23;20016;-79
2023/02/15 01:07:55;;;;;;;3.47;1.80;;;;;;;5.62;40.59;93720.94;6232733;23;20031;-80
2023/02/15 01:10:21;;;;;;;2.55;1.40;;;;;;;5.62;40.44;93728.72;6232986;23;20013;-80
2023/02/15 01:12:47;;;;;;;2.97;1.60;;;;;;;5.62;40.17;93727.94;6232175;23;20015;-79
2023/02/15 01:15:13;;;;;;;3.92;1.50;;;;;;;5.62;40.15;93731.31;6232155;23;20009;-79
2023/02/15 01:17:38;;;;;;;2.88;1.50;;;;;;;5.62;40.03;93731.31;6232591;23;20042;-80
2023/02/15 01:20:07;;;;;;;3.50;1.60;;;;;;;5.61;40.18;93732.34;6231086;23;20020;-79
2023/02/15 01:22:32;;;;;;;4.00;1.80;;;;;;;5.61;40.04;93727.16;6228593;23;20005;-77
2023/02/15 01:24:59;;;;;;;3.95;1.60;;;;;;;5.60;40.06;93724.75;6229548;23;20024;-78
2023/02/15 01:27:30;;;;;;;3.00;1.58;;;;;;;5.57;40.64;93720.81;6230181;23;20036;-79
2023/02/15 01:29:56;;;;;;;3.40;1.48;;;;;;;5.53;40.70;93718.91;6229075;23;20017;-79
2023/02/15 01:32:22;;;;;;;3.28;1.73;;;;;;;5.48;40.60;93714.38;6230815;23;20123;-79
2023/02/15 01:34:47;;;;;;;6.53;1.67;;;;;;;5.51;40.56;93718.31;6229059;23;20022;-79
2023/02/15 01:37:13;;;;;;;2.95;1.67;;;;;;;5.47;40.68;93699.81;6229826;23;20005;-79
2023/02/15 01:39:40;;;;;;;5.18;1.75;;;;;;;5.49;40.75;93712.56;6204644;23;20017;-77
2023/02/15 01:42:10;;;;;;;3.95;1.70;;;;;;;5.48;40.89;93711.00;6230968;23;20001;-78
2023/02/15 01:44:48;;;;;;;4.38;1.77;;;;;;;5.45;41.29;93712.22;6231432;23;20087;-78
2023/02/15 01:47:32;;;;;;;4.38;1.95;;;;;;;5.40;41.46;93715.50;6231599;23;20009;-78
2023/02/15 01:50:16;;;;;;;3.63;1.90;;;;;;;5.41;41.50;93713.69;6230763;23;20012;-78
2023/02/15 01:52:52;;;;;;;3.65;1.70;;;;;;;5.34;41.32;93706.00;6232146;23;20212;-78
2023/02/15 01:55:20;;;;;;;3.92;1.77;;;;;;;5.38;41.15;93706.34;6230784;23;20040;-79
2023/02/15 01:57:47;;;;;;;3.70;1.80;;;;;;;5.40;41.06;93714.69;6229743;23;20039;-79
2023/02/15 02:00:13;;;;;;;3.47;1.80;;;;;;;5.40;41.05;93705.13;6230803;23;20039;-78
2023/02/15 02:02:43;;;;;;;3.53;1.55;;;;;;;5.38;40.78;93701.94;6232187;23;20052;-78
2023/02/15 02:05:09;;;;;;;3.58;1.60;;;;;;;5.43;40.84;93712.44;6206200;23;20048;-78
2023/02/15 02:07:39;;;;;;;3.13;1.70;;;;;;;5.39;40.74;93698.31;6231159;23;20031;-78
2023/02/15 02:10:07;;;;;;;2.60;1.42;;;;;;;5.47;40.97;93706.78;6206255;23;20012;-79
2023/02/15 02:12:34;;;;;;;3.70;1.70;;;;;;;5.48;41.30;93703.97;6230680;23;20008;-79
2023/02/15 02:15:01;;;;;;;4.85;1.90;;;;;;;5.48;41.40;93701.38;6232826;23;20015;-79
2023/02/15 02:17:46;;;;;;;3.90;1.90;;;;;;;5.46;42.17;93703.41;6231212;23;20003;-79
2023/02/15 02:20:44;;;;;;;4.15;1.83;;;;;;;5.43;42.45;93704.66;6232564;23;20005;-78
2023/02/15 02:23:24;;;;;;;3.83;2.00;;;;;;;5.42;42.55;93697.88;6231014;23;20349;-80
2023/02/15 02:26:11;;;;;;;;;;;;;;;5.43;43.09;93696.09;6232824;23;20441;-80
2023/02/15 02:28:58;;;;;;;3.15;1.63;;;;;;;5.44;43.14;93695.06;6232747;23;19934;-79
2023/02/15 02:31:43;;;;;;;3.22;1.70;;;;;;;5.43;43.29;93688.28;6231804;23;20012;-78
2023/02/15 02:34:20;;;;;;;3.30;1.90;;;;;;;5.39;43.46;93687.16;6233041;23;20036;-80
2023/02/15 02:36:55;;;;;;;4.28;1.77;;;;;;;5.33;43.74;93683.63;6233277;23;20015;-79
2023/02/15 02:39:41;;;;;;;3.80;1.75;;;;;;;5.30;43.47;93685.91;6233099;23;20028;-79
2023/02/15 02:42:29;;;;;;;2.78;1.52;;;;;;;5.27;43.02;93684.53;6233350;23;20372;-80
2023/02/15 02:45:07;;;;;;;3.47;1.52;;;;;;;5.25;42.64;93680.59;6230738;23;20032;-80
2023/02/15 02:47:40;;;;;;;2.83;1.33;;;;;;;5.23;42.48;93680.81;6231499;23;20008;-80
2023/02/15 02:50:09;;;;;;;2.97;1.40;;;;;;;5.20;42.22;93678.66;6233151;23;20009;-79
2023/02/15 02:52:47;;;;;;;2.22;1.23;;;;;;;5.17;42.26;93671.31;6233156;23;20380;-80
2023/02/15 02:55:19;;;;;;;3.42;1.40;;;;;;;5.21;42.57;93686.22;6231885;23;20013;-79
2023/02/15 02:58:16;;;;;;;2.83;1.52;;;;;;;5.18;42.46;93684.06;6205934;23;20016;-79
2023/02/15 03:00:57;;;;;;;4.07;1.52;;;;;;;5.14;42.58;93675.16;6156985;23;20058;-79
2023/02/15 03:03:34;;;;;;;2.97;1.50;;;;;;;5.12;42.44;93674.56;6231829;23;20012;-79
2023/02/15 03:06:04;;;;;;;2.58;1.48;;;;;;;5.09;42.40;93669.84;6231837;23;20019;-81
2023/02/15 03:08:38;;;;;;;3.00;1.48;;;;;;;5.09;42.41;93677.63;6205846;23;20043;-79
2023/02/15 03:11:04;;;;;;;2.58;1.40;;;;;;;5.11;42.27;93675.59;6206062;23;20012;-80
2023/02/15 03:13:31;;;;;;;2.85;1.60;;;;;;;5.12;42.27;93681.59;6206274;23;20160;-79
2023/02/15 03:18:57;;;;;;;3.00;1.40;;;;;;;5.02;42.53;93671.72;6233891;23;20016;-79
2023/02/15 03:21:34;;;;;;;2.45;1.35;;;;;;;4.96;42.20;93665.63;6207778;23;20023;-80
2023/02/15 03:24:13;;;;;;;1.88;1.20;;;;;;;4.94;42.38;93664.28;6208709;23;20083;-80
2023/02/15 03:26:40;;;;;;;2.72;1.35;;;;;;;4.91;42.13;93657.72;6205306;23;20020;-78
2023/02/15 03:29:09;;;;;;;2.85;1.40;;;;;;;4.89;42.20;93661.56;6206327;23;20001;-78
2023/02/15 03:31:40;;;;;;;1.85;1.27;;;;;;;4.93;42.35;93667.88;6205776;23;20009;-79
2023/02/15 03:34:09;;;;;;;2.72;1.40;;;;;;;4.89;41.75;93657.16;6233014;23;20016;-79
2023/02/15 03:36:46;;;;;;;2.58;1.40;;;;;;;4.91;41.69;93662.91;6207020;23;20092;-79
2023/02/15 03:39:20;;;;;;;2.15;1.40;;;;;;;4.92;41.39;93653.31;6232398;23;20008;-80
2023/02/15 03:42:11;;;;;;;1.90;1.20;;;;;;;4.93;41.49;93662.69;6233508;23;20061;-79
2023/02/15 03:45:05;;;;;;;3.55;1.40;;;;;;;4.95;41.33;93660.66;6206912;23;20009;-79
2023/02/15 03:47:36;;;;;;;2.10;1.25;;;;;;;4.92;41.26;93659.31;6198899;23;20016;-80
2023/02/15 03:53:02;;;;;;;2.45;1.23;;;;;;;4.94;40.95;93648.72;6206977;23;20030;-79
2023/02/15 03:55:28;;;;;;;2.58;1.30;;;;;;;4.94;41.07;93648.72;6232248;23;20008;-80
2023/02/15 04:03:39;;;;;;;3.58;1.50;;;;;;;4.94;41.26;93659.09;6231818;23;20008;-81
2023/02/15 04:06:05;;;;;;;3.37;1.43;;;;;;;4.92;41.24;93661.09;6207122;23;20036;-80
2023/02/15 04:11:15;;;;;;;2.47;1.25;;;;;;;4.86;41.17;93654.19;6231972;23;20033;-79
2023/02/15 04:13:40;;;;;;;2.13;1.20;;;;;;;4.82;41.08;93646.09;6233146;23;20001;-79
2023/02/15 04:16:06;;;;;;;1.98;1.20;;;;;;;4.83;40.84;93647.66;6180854;23;20019;-80
2023/02/15 04:26:52;;;;;;;3.60;1.60;;;;;;;4.86;41.34;93649.00;6232927;23;20016;-79
2023/02/15 04:29:20;;;;;;;3.10;1.50;;;;;;;4.86;41.61;93649.00;6232401;23;20012;-80
2023/02/15 04:31:46;;;;;;;2.75;1.50;;;;;;;4.82;41.98;93638.31;6233493;23;20012;-77
2023/02/15 04:34:11;;;;;;;6.72;1.60;;;;;;;4.82;42.11;93643.50;6233488;23;20008;-80
2023/02/15 04:36:38;;;;;;;3.63;1.80;;;;;;;4.76;42.28;93634.00;6232497;23;20020;-80
2023/02/15 04:39:04;;;;;;;2.67;1.55;;;;;;;4.78;42.55;93640.53;6205199;23;20012;-80
2023/02/15 04:41:30;;;;;;;3.00;1.70;;;;;;;4.79;43.17;93638.72;6232095;23;20064;-79
2023/02/15 04:43:56;;;;;;;3.35;1.63;;;;;;;4.72;43.19;93636.22;6232692;23;20080;-79
2023/02/15 04:46:22;;;;;;;4.97;1.70;;;;;;;4.76;42.81;93641.78;6206897;23;20017;-79
2023/02/15 04:48:47;;;;;;;2.63;1.48;;;;;;;4.74;42.64;93636.81;6231573;23;20011;-79
2023/02/15 04:51:13;;;;;;;3.30;1.70;;;;;;;4.77;43.22;93636.38;6206156;23;20479;-80
2023/02/15 04:53:38;;;;;;;4.00;1.73;;;;;;;4.76;43.36;93631.41;6231347;23;20056;-80
2023/02/15 04:56:05;;;;;;;4.20;1.70;;;;;;;4.77;43.53;93633.78;6196511;23;20016;-79
2023/02/15 04:58:30;;;;;;;3.17;1.60;;;;;;;4.78;43.49;93632.75;6229901;23;20475;-79
2023/02/15 05:00:57;;;;;;;4.80;1.90;;;;;;;4.75;43.68;93625.44;6232018;23;20144;-79
2023/02/15 05:03:23;;;;;;;5.07;1.98;;;;;;;4.76;44.22;93626.22;6230906;23;19996;-79
2023/02/15 05:05:48;;;;;;;4.50;1.70;;;;;;;4.70;43.94;93621.91;6206400;23;20016;-80
2023/02/15 05:08:14;;;;;;;3.05;1.83;;;;;;;4.72;44.02;93631.03;6205190;23;20052;-79
2023/02/15 05:10:40;;;;;;;2.92;1.50;;;;;;;4.74;43.46;93623.06;6230182;23;20047;-79
2023/02/15 05:13:05;;;;;;;3.92;1.90;;;;;;;4.72;43.32;93620.66;6230790;23;20027;-81
2023/02/15 05:15:31;;;;;;;3.85;1.70;;;;;;;4.75;43.52;93632.41;6205290;23;20023;-80
2023/02/15 05:17:56;;;;;;;3.58;1.52;;;;;;;4.75;43.35;93630.63;6231524;23;20064;-79
2023/02/15 05:20:22;;;;;;;5.25;1.60;;;;;;;4.73;43.28;93627.44;6227758;23;20008;-79
2023/02/15 05:22:48;;;;;;;4.45;1.65;;;;;;;4.74;43.22;93625.66;6231127;23;20000;-80
2023/02/15 05:30:42;;;;;;;2.90;1.55;;;;;;;4.71;43.08;93621.69;6207358;23;20036;-80
2023/02/15 05:33:08;;;;;;;3.67;1.63;;;;;;;4.69;43.28;93610.75;6230329;23;20004;-78
2023/02/15 05:35:34;;;;;;;3.85;1.80;;;;;;;4.72;43.37;93620.66;6227401;23;20332;-79
2023/02/15 05:38:00;;;;;;;3.15;1.60;;;;;;;4.73;43.37;93617.06;6228657;23;20020;-79
2023/02/15 05:40:25;;;;;;;4.50;1.73;;;;;;;4.70;43.86;93620.09;6231442;23;20024;-78
2023/02/15 05:42:51;;;;;;;2.45;1.38;;;;;;;4.64;44.54;93613.22;6229419;23;20293;-79
2023/02/15 05:45:17;;;;;;;3.10;1.63;;;;;;;4.54;44.66;93613.75;6231135;23;20408;-79
2023/02/15 05:47:43;;;;;;;3.65;1.70;;;;;;;4.57;44.92;93622.88;6204340;23;20008;-80
2023/02/15 05:50:11;;;;;;;3.72;1.70;;;;;;;4.50;44.40;93614.41;6221696;23;20042;-80
2023/02/15 05:52:36;;;;;;;2.83;1.63;;;;;;;4.54;44.17;93620.72;6224174;23;20000;-80
2023/02/15 05:55:04;;;;;;;3.80;1.55;;;;;;;4.55;43.99;93619.75;6193140;23;20019;-80
2023/02/15 05:57:30;;;;;;;3.85;1.65;;;;;;;4.57;43.77;93625.47;6217623;23;20766;-80
2023/02/15 05:59:55;;;;;;;3.78;1.70;;;;;;;4.59;44.02;93620.84;6216306;23;20063;-84
2023/02/15 06:02:22;;;;;;;4.20;1.65;;;;;;;4.61;44.50;93624.03;6215561;23;20001;-82
2023/02/15 06:04:48;;;;;;;3.97;1.80;;;;;;;4.59;44.80;93626.84;6217951;23;20024;-82
2023/02/15 06:07:16;;;;;;;4.93;1.80;;;;;;;4.60;45.06;93632.81;6216748;23;20443;-82
2023/02/15 06:09:42;;;;;;;3.55;1.90;;;;;;;4.56;45.08;93626.50;6222501;23;20016;-83
2023/02/15 06:12:07;;;;;;;3.95;1.50;;;;;;;4.53;44.81;93632.13;6222180;23;20027;-82
2023/02/15 06:14:33;;;;;;;3.50;1.80;;;;;;;4.51;44.80;93631.56;6219645;23;20024;-82
2023/02/15 06:16:58;;;;;;;4.10;1.85;;;;;;;4.51;44.71;93629.75;6219745;23;20008;-81
2023/02/15 06:19:24;;;;;;;3.55;1.80;;;;;;;4.51;44.78;93634.16;6217072;23;20013;-81
2023/02/15 06:21:50;;;;;;;4.68;2.00;;;;;;;4.51;44.74;93631.56;6216891;23;20000;-81
2023/02/15 06:24:15;;;;;;;3.83;1.90;;;;;;;4.54;44.80;93644.06;6220002;23;20017;-79
2023/02/15 06:26:41;;;;;;;3.78;1.80;;;;;;;4.57;44.78;93643.63;6223343;23;20022;-77
2023/02/15 06:29:07;;;;;;;3.03;1.60;;;;;;;4.58;44.74;93637.44;6224310;23;20072;-79
2023/02/15 06:31:32;;;;;;;3.00;1.55;;;;;;;4.63;44.54;93642.75;6230309;23;20023;-78
2023/02/15 06:34:00;;;;;;;4.88;1.73;;;;;;;4.69;44.91;93641.09;6223881;23;20441;-77
2023/02/15 06:36:28;;;;;;;3.58;1.48;;;;;;;4.74;45.33;93644.59;6214080;23;20024;-80
2023/02/15 06:38:54;;;;;;;17.70;1.80;;;;;;;4.76;45.36;93649.56;6222616;23;20012;-78
2023/02/15 06:41:20;;;;;;;4.35;1.60;;;;;;;5.12;44.23;93640.84;6221370;23;20004;-79
2023/02/15 06:43:46;;;;;;;3.50;1.80;;;;;;;6.12;43.39;93643.53;6223025;23;20013;-79
2023/02/15 06:46:11;;;;;;;3.03;1.70;;;;;;;6.99;41.66;93640.69;6221654;23;20310;-78
2023/02/15 06:48:38;;;;;;;4.85;1.83;;;;;;;7.93;40.07;93647.81;6194890;23;20104;-79
2023/02/15 06:51:03;;;;;;;4.07;1.80;;;;;;;8.85;38.86;93642.06;6220229;23;20022;-80
2023/02/15 06:53:29;;;;;;;3.67;1.77;;;;;;;9.69;37.00;93645.91;6221240;23;20013;-80
2023/02/15 06:56:06;;;;;;;4.88;1.80;;;;;;;10.62;35.11;93637.47;6222598;23;20008;-81
2023/02/15 06:58:33;;;;;;;3.05;1.60;;;;;;;11.44;33.22;93640.97;6220466;23;20008;-79
2023/02/15 07:00:59;;;;;;;4.65;1.67;;;;;;;12.29;32.34;93642.97;6192729;23;20012;-81
2023/02/15 07:03:24;;;;;;;3.20;1.73;;;;;;;12.98;30.31;93637.13;6218605;23;20012;-81
2023/02/15 07:05:55;;;;;;;3.20;1.65;;;;;;;13.63;29.59;93639.56;6195257;23;20000;-80
2023/02/15 07:08:21;;;;;;;3.85;1.80;;;;;;;14.08;28.72;93645.47;6222664;23;20004;-80
2023/02/15 07:10:49;;;;;;;4.78;1.92;;;;;;;14.70;28.57;93640.28;6219856;23;20467;-80
2023/02/15 07:13:15;;;;;;;3.55;1.85;;;;;;;15.61;27.91;93643.47;6221099;23;20020;-80
2023/02/15 07:15:40;;;;;;;6.47;1.90;;;;;;;16.28;26.59;93634.44;6193842;23;20004;-79
2023/02/15 07:18:06;;;;;;;5.68;2.25;;;;;;;16.72;26.22;93643.59;6219265;23;20020;-78
2023/02/15 07:20:34;;;;;;;7.88;1.75;;;;;;;17.26;25.51;93639.28;6192256;23;20428;-78
2023/02/15 07:23:00;;;;;;;6.28;2.00;;;;;;;18.07;24.71;93648.28;6193893;23;20017;-79
2023/02/15 07:25:25;;;;;;;5.25;1.98;;;;;;;18.39;24.35;93644.50;6192351;23;20015;-81
2023/02/15 07:28:01;;;;;;;5.55;2.10;;;;;;;18.84;23.79;93646.22;6193055;23;20013;-78
2023/02/15 07:30:28;;;;;;;5.05;1.85;;;;;;;19.27;23.44;93640.19;6219542;23;20181;-78
2023/02/15 07:35:53;;;;;;;4.93;1.80;;;;;;;19.98;22.12;93647.81;6193449;23;20040;-78
2023/02/15 07:38:20;;;;;;;4.88;1.80;;;;;;;20.18;22.12;93649.78;6220673;23;20009;-79
2023/02/15 07:40:45;;;;;;;3.55;1.80;;;;;;;21.05;21.34;93655.84;6169711;23;20010;-79
2023/02/15 07:43:12;;;;;;;4.45;1.83;;;;;;;22.06;20.56;93655.66;6194799;23;20032;-80
2023/02/15 07:45:38;;;;;;;5.28;1.90;;;;;;;22.47;19.56;93656.66;6145177;23;20348;-80
2023/02/15 07:48:04;;;;;;;5.05;2.20;;;;;;;22.52;19.60;93653.00;6194783;23;20009;-79
2023/02/15 07:50:31;;;;;;;7.90;2.10;;;;;;;22.45;20.24;93653.56;6194240;23;20007;-80
2023/02/15 07:52:57;;;;;;;5.00;2.00;;;;;;;22.87;18.94;93651.44;6194841;23;20471;-79
2023/02/15 07:55:23;;;;;;;3.78;1.85;;;;;;;23.25;19.19;93647.63;6175105;23;20250;-79
2023/02/15 07:57:49;;;;;;;3.65;1.77;;;;;;;23.26;19.40;93640.41;6220675;23;20039;-79
2023/02/15 08:00:18;;;;;;;6.45;2.08;;;;;;;23.17;18.73;93645.09;6219454;23;20005;-80
2023/02/15 08:03:14;;;;;;;4.63;1.90;;;;;;;23.32;18.31;93652.41;6193465;23;20008;-79
2023/02/15 08:05:42;;;;;;;7.43;2.08;;;;;;;24.45;17.39;93642.47;6219134;23;20016;-78
2023/02/15 08:08:29;;;;;;;3.40;2.00;;;;;;;23.93;16.46;93648.00;6219044;23;20036;-78
2023/02/15 08:13:55;;;;;;;4.55;2.10;;;;;;;22.48;18.86;93639.53;6219400;23;20396;-78
2023/02/15 08:16:26;;;;;;;3.80;2.10;;;;;;;22.34;19.25;93641.75;6219180;23;20008;-78
2023/02/15 08:18:53;;;;;;;5.38;2.05;;;;;;;21.34;19.34;93647.78;6218532;23;20449;-78
2023/02/15 08:21:20;;;;;;;7.10;2.30;;;;;;;20.49;20.73;93647.94;6193829;23;20009;-79
2023/02/15 08:23:46;;;;;;;4.50;2.50;;;;;;;20.04;21.74;93648.41;6219426;23;20440;-81
2023/02/15 08:26:12;;;;;;;5.20;2.28;;;;;;;18.83;22.79;93647.34;6220106;23;20005;-79
2023/02/15 08:28:38;;;;;;;5.07;2.65;;;;;;;17.98;24.03;93647.44;6216906;23;20091;-79
2023/02/15 08:31:13;;;;;;;6.50;2.65;;;;;;;17.57;25.15;93646.53;6218764;23;20072;-78
2023/02/15 08:33:41;;;;;;;4.88;2.33;;;;;;;17.47;23.99;93652.06;6188770;23;20024;-79
2023/02/15 08:36:09;;;;;;;4.85;2.28;;;;;;;16.97;24.44;93658.19;6213801;23;20003;-79
2023/02/15 08:38:35;;;;;;;3.70;1.73;;;;;;;17.00;23.84;93654.16;6215680;23;20055;-79
2023/02/15 08:41:19;;;;;;;4.75;1.98;;;;;;;17.62;23.89;93658.88;6193200;23;20425;-78
2023/02/15 08:43:46;;;;;;;4.55;2.10;;;;;;;17.88;23.41;93653.78;6219199;23;20062;-78
2023/02/15 08:46:14;;;;;;;3.92;1.92;;;;;;;17.10;23.58;93659.25;6220260;23;20000;-81
2023/02/15 08:48:40;;;;;;;4.68;2.30;;;;;;;16.87;24.30;93663.69;6222691;23;20013;-78
2023/02/15 08:51:11;;;;;;;4.22;2.03;;;;;;;16.76;25.64;93654.38;6218786;23;20384;-79
2023/02/15 08:53:39;;;;;;;7.53;2.30;;;;;;;16.78;26.17;93650.38;6218529;23;20016;-79
2023/02/15 08:56:07;;;;;;;6.13;2.67;;;;;;;16.64;26.04;93654.88;6219332;23;20035;-79
2023/02/15 08:58:34;;;;;;;5.82;2.40;;;;;;;16.05;24.69;93649.38;6219794;23;20034;-78
2023/02/15 09:01:02;;;;;;;6.22;2.80;;;;;;;16.02;24.12;93645.44;6221427;23;20001;-80
2023/02/15 09:03:28;;;;;;;5.22;2.20;;;;;;;16.28;25.23;93647.66;6221413;23;20440;-79
2023/02/15 09:06:00;;;;;;;5.78;2.50;;;;;;;16.11;26.41;93647.44;6220068;23;20439;-79
2023/02/15 09:08:26;;;;;;;;;;;;;;;15.72;26.65;93648.63;6221400;23;20012;-79
2023/02/15 09:10:52;;;;;;;6.10;2.33;;;;;;;15.30;27.50;93640.53;6219515;23;19915;-79
2023/02/15 09:13:17;;;;;;;6.20;2.60;;;;;;;15.27;26.82;93648.25;6219129;23;20356;-79
2023/02/15 09:15:43;;;;;;;5.00;2.20;;;;;;;15.71;26.03;93645.19;6219437;23;20004;-79
2023/02/15 09:18:08;;;;;;;6.47;2.38;;;;;;;15.28;26.07;93647.94;6168298;23;20012;-79
2023/02/15 09:20:37;;;;;;;5.18;2.38;;;;;;;15.38;26.13;93641.75;6168446;23;20061;-79
2023/02/15 09:23:04;;;;;;;5.82;2.60;;;;;;;15.40;26.91;93648.28;6221133;23;20457;-77
2023/02/15 09:25:29;;;;;;;7.90;2.53;;;;;;;15.29;26.60;93638.97;6193668;23;20019;-79
2023/02/15 09:27:55;;;;;;;5.40;1.98;;;;;;;15.42;27.51;93632.16;6221104;23;20016;-79
2023/02/15 09:30:21;;;;;;;6.05;2.47;;;;;;;15.14;28.21;93641.81;6193443;23;20241;-79
2023/02/15 09:32:47;;;;;;;6.90;2.83;;;;;;;15.17;28.50;93646.53;6219744;23;20095;-78
2023/02/15 09:35:13;;;;;;;8.75;2.60;;;;;;;15.18;28.25;93643.59;6217380;23;19997;-79
2023/02/15 09:37:38;;;;;;;6.85;2.78;;;;;;;15.27;27.73;93642.97;6219085;23;20012;-79
2023/02/15 09:40:05;;;;;;;11.35;3.08;;;;;;;15.20;28.43;93645.97;6168225;23;20424;-78
2023/02/15 09:42:36;;;;;;;7.82;2.75;;;;;;;15.10;28.14;93641.59;6221433;23;20012;-78
2023/02/15 09:45:26;;;;;;;5.85;2.50;;;;;;;15.40;27.50;93650.13;6221058;23;20012;-79
2023/02/15 09:48:07;;;;;;;4.80;2.55;;;;;;;15.49;27.46;93643.16;6220223;23;20440;-79
2023/02/15 09:50:36;;;;;;;4.00;2.30;;;;;;;15.85;26.75;93650.53;6220411;23;20023;-79
2023/02/15 09:53:18;;;;;;;8.38;2.50;;;;;;;15.99;26.36;93648.69;6220603;23;20016;-78
2023/02/15 09:56:04;;;;;;;4.05;1.98;;;;;;;15.89;26.51;93640.94;6220666;23;20012;-78
2023/02/15 09:58:38;;;;;;;5.80;2.10;;;;;;;15.41;26.67;93649.06;6193397;23;20023;-78
2023/02/15 10:01:13;;;;;;;6.22;2.38;;;;;;;15.26;26.72;93651.94;6218892;23;20044;-78
2023/02/15 10:04:03;;;;;;;4.95;2.50;;;;;;;15.10;27.43;93641.59;6219438;23;20402;-78
2023/02/15 10:06:38;;;;;;;5.65;2.03;;;;;;;15.05;27.41;93646.94;6219539;23;20013;-78
2023/02/15 10:09:32;;;;;;;9.18;2.22;;;;;;;15.06;25.40;93639.81;6220003;23;20013;-78
2023/02/15 10:12:16;;;;;;;4.55;2.30;;;;;;;15.32;26.77;93648.16;6218876;23;20013;-78
2023/02/15 10:15:19;;;;;;;3.92;2.17;;;;;;;15.24;25.98;93646.16;6218761;23;20008;-78
2023/02/15 10:18:03;;;;;;;;;;;;;;;15.17;27.53;93642.03;6193462;23;20012;-77
2023/02/15 10:20:53;;;;;;;6.80;2.55;;;;;;;15.14;27.46;93633.91;6220120;23;19911;-78
2023/02/15 10:23:21;;;;;;;8.90;2.38;;;;;;;15.15;26.02;93638.91;6218499;23;20043;-78
2023/02/15 10:26:00;;;;;;;7.07;2.28;;;;;;;15.35;24.88;93637.03;6169558;23;20325;-78
2023/02/15 10:28:44;;;;;;;5.47;2.47;;;;;;;15.34;26.02;93633.59;6220894;23;20028;-77
2023/02/15 10:31:48;;;;;;;2.95;1.48;;;;;;;15.64;22.28;93633.41;6221358;23;20023;-78
2023/02/15 10:34:18;;;;;;;5.50;2.10;;;;;;;15.50;25.54;93636.00;6171570;23;20016;-78
2023/02/15 10:36:47;;;;;;;3.60;1.70;;;;;;;15.60;24.54;93628.72;6195180;23;20170;-78
2023/02/15 10:39:43;;;;;;;8.02;2.30;;;;;;;15.58;25.42;93625.59;6194593;23;20031;-78
2023/02/15 10:42:30;;;;;;;4.55;2.10;;;;;;;15.49;24.40;93619.41;6194869;23;20092;-78
2023/02/15 10:45:05;;;;;;;3.70;2.10;;;;;;;15.58;25.37;93628.22;6194091;23;20063;-78
2023/02/15 10:47:47;;;;;;;3.95;1.92;;;;;;;15.55;23.91;93620.09;6220728;23;20146;-78
2023/02/15 10:50:46;;;;;;;3.95;1.85;;;;;;;15.61;24.92;93621.59;6194289;23;20020;-78
2023/02/15 10:53:42;;;;;;;7.43;2.30;;;;;;;15.80;24.79;93621.56;6193738;23;20012;-78
2023/02/15 10:56:43;;;;;;;4.53;2.13;;;;;;;15.91;25.49;93617.66;6220578;23;20024;-78
2023/02/15 10:59:30;;;;;;;5.07;2.67;;;;;;;15.95;26.63;93615.22;6156975;23;20017;-78
2023/02/15 11:02:58;;;;;;;7.10;2.30;;;;;;;15.96;25.92;93620.22;6220333;23;20068;-78
2023/02/15 11:05:39;;;;;;;3.55;1.85;;;;;;;16.13;25.24;93618.88;6061930;23;20495;-78
2023/02/15 11:08:08;;;;;;;5.00;2.10;;;;;;;16.16;25.47;93618.28;6176864;23;20071;-78
2023/02/15 11:10:47;;;;;;;4.25;2.50;;;;;;;16.23;26.12;93608.91;6220650;23;20448;-78
2023/02/15 11:13:16;;;;;;;6.57;2.65;;;;;;;16.50;26.39;93607.28;6193274;23;20008;-78
2023/02/15 11:15:53;;;;;;;7.20;3.28;;;;;;;16.39;27.12;93600.66;6221130;23;20004;-79
2023/02/15 11:18:30;;;;;;;7.32;2.78;;;;;;;16.38;26.78;93601.75;6220409;23;20015;-78
2023/02/15 11:21:20;;;;;;;5.13;2.40;;;;;;;16.55;26.31;93601.94;6220366;23;20016;-79
2023/02/15 11:23:47;;;;;;;9.35;2.75;;;;;;;16.47;27.09;93596.56;6220306;23;20604;-79
2023/02/15 11:26:34;;;;;;;8.05;2.70;;;;;;;16.56;26.63;93594.78;6220024;23;20012;-79
2023/02/15 11:29:31;;;;;;;5.47;2.80;;;;;;;16.58;27.26;93592.63;6219218;23;20012;-79
2023/02/15 11:32:02;;;;;;;6.10;2.83;;;;;;;16.64;25.90;93586.16;6192983;23;20005;-78
2023/02/15 11:34:46;;;;;;;6.05;2.53;;;;;;;16.58;25.80;93584.69;6219479;23;20023;-78
2023/02/15 11:37:18;;;;;;;3.83;1.92;;;;;;;16.47;26.16;93585.97;6219690;23;20036;-79
2023/02/15 11:39:44;;;;;;;6.57;2.47;;;;;;;16.39;26.73;93577.69;6191996;23;20452;-79
2023/02/15 11:42:15;;;;;;;5.93;2.70;;;;;;;16.20;27.29;93582.28;6219006;23;20023;-78
2023/02/15 11:44:56;;;;;;;6.22;3.08;;;;;;;15.96;27.50;93582.44;6192894;23;20008;-78
2023/02/15 11:47:21;;;;;;;5.00;2.60;;;;;;;16.18;26.85;93573.84;6219287;23;20050;-79
2023/02/15 11:49:47;;;;;;;5.28;2.60;;;;;;;16.17;26.42;93572.31;6192932;23;20004;-78
2023/02/15 11:52:16;;;;;;;6.30;2.80;;;;;;;16.10;27.30;93567.41;6218965;23;20441;-79
2023/02/15 11:54:45;;;;;;;4.95;2.60;;;;;;;16.17;26.89;93569.66;6219311;23;20066;-78
2023/02/15 11:57:19;;;;;;;4.70;2.25;;;;;;;16.32;25.75;93564.06;6219839;23;20083;-79
2023/02/15 12:00:03;;;;;;;5.03;2.33;;;;;;;16.27;27.12;93558.88;6219050;23;20014;-79
2023/02/15 12:02:37;;;;;;;4.57;2.17;;;;;;;16.24;26.98;93557.63;6219223;23;20035;-79
2023/02/15 12:05:13;;;;;;;3.92;1.92;;;;;;;16.15;26.70;93554.09;6217631;23;20016;-78
2023/02/15 12:07:49;;;;;;;5.93;2.30;;;;;;;16.26;27.24;93559.16;6192296;23;20023;-79
2023/02/15 12:10:24;;;;;;;6.20;2.50;;;;;;;16.15;27.59;93551.47;6218949;23;20019;-79
2023/02/15 12:13:13;;;;;;;5.18;2.08;;;;;;;16.32;26.42;93547.44;6218810;23;20016;-79
2023/02/15 12:15:42;;;;;;;4.35;2.22;;;;;;;16.42;26.16;93545.38;6192549;23;20031;-79
2023/02/15 12:18:34;;;;;;;5.10;2.35;;;;;;;16.53;25.58;93545.16;6218384;23;20004;-78
2023/02/15 12:21:11;;;;;;;5.95;2.65;;;;;;;16.59;26.55;93541.31;6218134;23;20009;-78
2023/02/15 12:23:48;;;;;;;5.25;2.50;;;;;;;16.83;25.44;93544.50;6218116;23;20012;-79
2023/02/15 12:26:14;;;;;;;5.70;2.40;;;;;;;16.90;25.90;93540.69;6218709;23;20008;-79
2023/02/15 12:28:44;;;;;;;5.93;2.13;;;;;;;17.13;26.28;93539.59;6218186;23;20070;-79
2023/02/15 12:31:23;;;;;;;4.82;2.35;;;;;;;17.05;25.31;93532.41;6216913;23;20009;-79
2023/02/15 12:33:53;;;;;;;6.03;2.40;;;;;;;16.94;26.21;93537.13;6218689;23;20012;-79